sensor_id;sensor_type;location;lat;lon;timestamp;pressure;altitude;pressure_sealevel;temperature
11424;BMP180;5768;51.476;7.210;2024-01-15T00:01:42;98840.00;;;4.70
11424;BMP180;5768;51.476;7.210;2024-01-15T00:06:45;98840.00;;;4.80
11424;BMP180;5768;51.476;7.210;2024-01-15T00:11:49;98828.00;;;4.90
11424;BMP180;5768;51.476;7.210;2024-01-15T00:16:51;98826.00;;;4.80
11424;BMP180;5768;51.476;7.210;2024-01-15T00:21:55;98813.00;;;4.80
11424;BMP180;5768;51.476;7.210;2024-01-15T00:26:59;98802.00;;;4.80
11424;BMP180;5768;51.476;7.210;2024-01-15T00:32:02;98802.00;;;4.90
11424;BMP180;5768;51.476;7.210;2024-01-15T00:37:04;98797.00;;;4.90
11424;BMP180;5768;51.476;7.210;2024-01-15T00:42:09;98800.00;;;4.90
11424;BMP180;5768;51.476;7.210;2024-01-15T00:47:11;98798.00;;;4.90
11424;BMP180;5768;51.476;7.210;2024-01-15T00:52:13;98797.00;;;5.00
11424;BMP180;5768;51.476;7.210;2024-01-15T00:57:16;98791.00;;;5.00
11424;BMP180;5768;51.476;7.210;2024-01-15T01:02:20;98787.00;;;5.10
11424;BMP180;5768;51.476;7.210;2024-01-15T01:07:22;98797.00;;;5.10
11424;BMP180;5768;51.476;7.210;2024-01-15T01:12:26;98785.00;;;5.00
11424;BMP180;5768;51.476;7.210;2024-01-15T01:17:28;98778.00;;;5.00
11424;BMP180;5768;51.476;7.210;2024-01-15T01:22:31;98785.00;;;5.10
11424;BMP180;5768;51.476;7.210;2024-01-15T01:27:35;98774.00;;;5.00
11424;BMP180;5768;51.476;7.210;2024-01-15T01:32:37;98771.00;;;5.00
11424;BMP180;5768;51.476;7.210;2024-01-15T01:37:39;98776.00;;;5.10
11424;BMP180;5768;51.476;7.210;2024-01-15T01:42:48;98778.00;;;5.10
11424;BMP180;5768;51.476;7.210;2024-01-15T01:47:50;98787.00;;;5.10
11424;BMP180;5768;51.476;7.210;2024-01-15T01:52:53;98776.00;;;5.00
11424;BMP180;5768;51.476;7.210;2024-01-15T01:57:57;98793.00;;;5.10
11424;BMP180;5768;51.476;7.210;2024-01-15T02:03:00;98784.00;;;5.10
11424;BMP180;5768;51.476;7.210;2024-01-15T02:08:04;98784.00;;;5.10
11424;BMP180;5768;51.476;7.210;2024-01-15T02:13:08;98786.00;;;5.10
11424;BMP180;5768;51.476;7.210;2024-01-15T02:18:10;98782.00;;;5.10
11424;BMP180;5768;51.476;7.210;2024-01-15T02:23:16;98783.00;;;5.00
11424;BMP180;5768;51.476;7.210;2024-01-15T02:28:18;98785.00;;;5.00
11424;BMP180;5768;51.476;7.210;2024-01-15T02:33:20;98777.00;;;4.90
11424;BMP180;5768;51.476;7.210;2024-01-15T02:38:24;98781.00;;;4.90
11424;BMP180;5768;51.476;7.210;2024-01-15T02:43:26;98780.00;;;4.90
11424;BMP180;5768;51.476;7.210;2024-01-15T02:48:28;98784.00;;;4.90
11424;BMP180;5768;51.476;7.210;2024-01-15T02:53:32;98792.00;;;5.00
11424;BMP180;5768;51.476;7.210;2024-01-15T02:58:34;98765.00;;;4.90
11424;BMP180;5768;51.476;7.210;2024-01-15T03:03:37;98771.00;;;4.80
11424;BMP180;5768;51.476;7.210;2024-01-15T03:08:40;98766.00;;;4.80
11424;BMP180;5768;51.476;7.210;2024-01-15T03:13:43;98771.00;;;4.80
11424;BMP180;5768;51.476;7.210;2024-01-15T03:18:45;98767.00;;;4.70
11424;BMP180;5768;51.476;7.210;2024-01-15T03:23:48;98775.00;;;4.80
11424;BMP180;5768;51.476;7.210;2024-01-15T03:28:51;98773.00;;;4.80
11424;BMP180;5768;51.476;7.210;2024-01-15T03:33:53;98770.00;;;4.90
11424;BMP180;5768;51.476;7.210;2024-01-15T03:38:59;98772.00;;;4.90
11424;BMP180;5768;51.476;7.210;2024-01-15T03:44:02;98777.00;;;4.90
11424;BMP180;5768;51.476;7.210;2024-01-15T03:49:08;98776.00;;;4.90
11424;BMP180;5768;51.476;7.210;2024-01-15T03:54:11;98781.00;;;5.00
11424;BMP180;5768;51.476;7.210;2024-01-15T03:59:15;98773.00;;;5.00
11424;BMP180;5768;51.476;7.210;2024-01-15T04:04:18;98778.00;;;5.10
11424;BMP180;5768;51.476;7.210;2024-01-15T04:09:22;98764.00;;;5.00
11424;BMP180;5768;51.476;7.210;2024-01-15T04:14:25;98756.00;;;5.10
11424;BMP180;5768;51.476;7.210;2024-01-15T04:19:28;98745.00;;;5.10
11424;BMP180;5768;51.476;7.210;2024-01-15T04:24:33;98737.00;;;5.10
11424;BMP180;5768;51.476;7.210;2024-01-15T04:29:40;98730.00;;;5.20
11424;BMP180;5768;51.476;7.210;2024-01-15T04:34:42;98731.00;;;5.10
11424;BMP180;5768;51.476;7.210;2024-01-15T04:39:46;98726.00;;;5.10
11424;BMP180;5768;51.476;7.210;2024-01-15T04:44:48;98713.00;;;5.20
11424;BMP180;5768;51.476;7.210;2024-01-15T04:49:50;98724.00;;;5.20
11424;BMP180;5768;51.476;7.210;2024-01-15T04:54:54;98707.00;;;5.20
11424;BMP180;5768;51.476;7.210;2024-01-15T04:59:56;98713.00;;;5.30
11424;BMP180;5768;51.476;7.210;2024-01-15T05:05:01;98711.00;;;5.30
11424;BMP180;5768;51.476;7.210;2024-01-15T05:10:06;98709.00;;;5.30
11424;BMP180;5768;51.476;7.210;2024-01-15T05:15:09;98716.00;;;5.30
11424;BMP180;5768;51.476;7.210;2024-01-15T05:20:12;98696.00;;;5.20
11424;BMP180;5768;51.476;7.210;2024-01-15T05:25:15;98697.00;;;5.20
11424;BMP180;5768;51.476;7.210;2024-01-15T05:30:18;98692.00;;;5.30
11424;BMP180;5768;51.476;7.210;2024-01-15T05:35:21;98706.00;;;5.20
11424;BMP180;5768;51.476;7.210;2024-01-15T05:40:25;98691.00;;;5.10
11424;BMP180;5768;51.476;7.210;2024-01-15T05:45:27;98687.00;;;5.10
11424;BMP180;5768;51.476;7.210;2024-01-15T05:50:29;98686.00;;;5.20
11424;BMP180;5768;51.476;7.210;2024-01-15T05:55:33;98683.00;;;5.20
11424;BMP180;5768;51.476;7.210;2024-01-15T06:00:35;98686.00;;;5.20
11424;BMP180;5768;51.476;7.210;2024-01-15T06:05:39;98689.00;;;5.10
11424;BMP180;5768;51.476;7.210;2024-01-15T06:10:42;98692.00;;;5.10
11424;BMP180;5768;51.476;7.210;2024-01-15T06:15:48;98681.00;;;5.10
11424;BMP180;5768;51.476;7.210;2024-01-15T06:20:50;98668.00;;;5.10
11424;BMP180;5768;51.476;7.210;2024-01-15T06:25:54;98673.00;;;5.20
11424;BMP180;5768;51.476;7.210;2024-01-15T06:30:57;98675.00;;;5.10
11424;BMP180;5768;51.476;7.210;2024-01-15T06:35:59;98657.00;;;5.10
11424;BMP180;5768;51.476;7.210;2024-01-15T06:41:03;98655.00;;;5.10
11424;BMP180;5768;51.476;7.210;2024-01-15T06:46:05;98660.00;;;5.10
11424;BMP180;5768;51.476;7.210;2024-01-15T06:51:07;98659.00;;;5.10
11424;BMP180;5768;51.476;7.210;2024-01-15T06:56:11;98660.00;;;5.10
11424;BMP180;5768;51.476;7.210;2024-01-15T07:01:13;98666.00;;;5.10
11424;BMP180;5768;51.476;7.210;2024-01-15T07:06:15;98660.00;;;5.10
11424;BMP180;5768;51.476;7.210;2024-01-15T07:11:19;98673.00;;;5.10
11424;BMP180;5768;51.476;7.210;2024-01-15T07:16:21;98680.00;;;5.20
11424;BMP180;5768;51.476;7.210;2024-01-15T07:21:23;98669.00;;;5.20
11424;BMP180;5768;51.476;7.210;2024-01-15T07:26:27;98670.00;;;5.20
11424;BMP180;5768;51.476;7.210;2024-01-15T07:31:29;98665.00;;;5.20
11424;BMP180;5768;51.476;7.210;2024-01-15T07:36:31;98682.00;;;5.30
11424;BMP180;5768;51.476;7.210;2024-01-15T07:41:35;98670.00;;;5.20
11424;BMP180;5768;51.476;7.210;2024-01-15T07:46:37;98670.00;;;5.20
11424;BMP180;5768;51.476;7.210;2024-01-15T07:51:40;98671.00;;;5.20
11424;BMP180;5768;51.476;7.210;2024-01-15T07:56:56;98666.00;;;5.30
11424;BMP180;5768;51.476;7.210;2024-01-15T08:02:01;98675.00;;;5.30
11424;BMP180;5768;51.476;7.210;2024-01-15T08:07:04;98669.00;;;5.30
11424;BMP180;5768;51.476;7.210;2024-01-15T08:12:08;98660.00;;;5.30
11424;BMP180;5768;51.476;7.210;2024-01-15T08:17:13;98667.00;;;5.40
11424;BMP180;5768;51.476;7.210;2024-01-15T08:22:17;98656.00;;;5.30
11424;BMP180;5768;51.476;7.210;2024-01-15T08:27:20;98662.00;;;5.40
11424;BMP180;5768;51.476;7.210;2024-01-15T08:32:22;98660.00;;;5.40
11424;BMP180;5768;51.476;7.210;2024-01-15T08:37:25;98658.00;;;5.40
11424;BMP180;5768;51.476;7.210;2024-01-15T08:42:28;98660.00;;;5.20
11424;BMP180;5768;51.476;7.210;2024-01-15T08:47:30;98660.00;;;5.20
11424;BMP180;5768;51.476;7.210;2024-01-15T08:52:38;98658.00;;;5.20
11424;BMP180;5768;51.476;7.210;2024-01-15T08:57:41;98673.00;;;5.10
11424;BMP180;5768;51.476;7.210;2024-01-15T09:02:44;98673.00;;;5.00
11424;BMP180;5768;51.476;7.210;2024-01-15T09:07:46;98684.00;;;5.00
11424;BMP180;5768;51.476;7.210;2024-01-15T09:12:50;98682.00;;;5.00
11424;BMP180;5768;51.476;7.210;2024-01-15T09:17:52;98677.00;;;5.00
11424;BMP180;5768;51.476;7.210;2024-01-15T09:22:54;98692.00;;;5.00
11424;BMP180;5768;51.476;7.210;2024-01-15T09:27:58;98685.00;;;5.10
11424;BMP180;5768;51.476;7.210;2024-01-15T09:33:00;98688.00;;;5.00
11424;BMP180;5768;51.476;7.210;2024-01-15T09:38:03;98695.00;;;5.00
11424;BMP180;5768;51.476;7.210;2024-01-15T09:43:08;98688.00;;;4.90
11424;BMP180;5768;51.476;7.210;2024-01-15T09:48:10;98703.00;;;4.90
11424;BMP180;5768;51.476;7.210;2024-01-15T09:53:25;98704.00;;;4.90
11424;BMP180;5768;51.476;7.210;2024-01-15T09:58:29;98713.00;;;5.10
11424;BMP180;5768;51.476;7.210;2024-01-15T10:03:32;98700.00;;;5.00
11424;BMP180;5768;51.476;7.210;2024-01-15T10:08:48;98714.00;;;5.00
11424;BMP180;5768;51.476;7.210;2024-01-15T10:13:52;98706.00;;;5.00
11424;BMP180;5768;51.476;7.210;2024-01-15T10:18:55;98691.00;;;5.30
11424;BMP180;5768;51.476;7.210;2024-01-15T10:24:01;98687.00;;;5.40
11424;BMP180;5768;51.476;7.210;2024-01-15T10:29:06;98687.00;;;5.40
11424;BMP180;5768;51.476;7.210;2024-01-15T10:34:12;98670.00;;;5.30
11424;BMP180;5768;51.476;7.210;2024-01-15T10:39:16;98672.00;;;5.30
11424;BMP180;5768;51.476;7.210;2024-01-15T10:44:19;98681.00;;;5.30
11424;BMP180;5768;51.476;7.210;2024-01-15T10:49:22;98689.00;;;5.30
11424;BMP180;5768;51.476;7.210;2024-01-15T10:54:27;98687.00;;;5.50
11424;BMP180;5768;51.476;7.210;2024-01-15T10:59:32;98680.00;;;5.50
11424;BMP180;5768;51.476;7.210;2024-01-15T11:04:35;98682.00;;;5.40
11424;BMP180;5768;51.476;7.210;2024-01-15T11:09:37;98681.00;;;5.40
11424;BMP180;5768;51.476;7.210;2024-01-15T11:15:00;98693.00;;;5.40
11424;BMP180;5768;51.476;7.210;2024-01-15T11:20:06;98694.00;;;5.50
11424;BMP180;5768;51.476;7.210;2024-01-15T11:25:14;98690.00;;;5.90
11424;BMP180;5768;51.476;7.210;2024-01-15T11:30:25;98700.00;;;5.90
11424;BMP180;5768;51.476;7.210;2024-01-15T11:35:49;98693.00;;;5.80
11424;BMP180;5768;51.476;7.210;2024-01-15T11:40:51;98689.00;;;5.70
11424;BMP180;5768;51.476;7.210;2024-01-15T11:45:56;98690.00;;;5.80
11424;BMP180;5768;51.476;7.210;2024-01-15T11:51:00;98690.00;;;6.10
11424;BMP180;5768;51.476;7.210;2024-01-15T11:56:11;98687.00;;;6.10
11424;BMP180;5768;51.476;7.210;2024-01-15T12:01:16;98687.00;;;6.00
11424;BMP180;5768;51.476;7.210;2024-01-15T12:06:18;98679.00;;;6.00
11424;BMP180;5768;51.476;7.210;2024-01-15T12:11:22;98677.00;;;5.90
11424;BMP180;5768;51.476;7.210;2024-01-15T12:16:28;98677.00;;;5.90
11424;BMP180;5768;51.476;7.210;2024-01-15T12:21:31;98692.00;;;6.00
11424;BMP180;5768;51.476;7.210;2024-01-15T12:26:34;98685.00;;;5.90
11424;BMP180;5768;51.476;7.210;2024-01-15T12:31:37;98677.00;;;5.90
11424;BMP180;5768;51.476;7.210;2024-01-15T12:36:40;98685.00;;;5.80
11424;BMP180;5768;51.476;7.210;2024-01-15T12:41:43;98700.00;;;5.80
11424;BMP180;5768;51.476;7.210;2024-01-15T12:46:47;98675.00;;;5.80
11424;BMP180;5768;51.476;7.210;2024-01-15T12:51:53;98695.00;;;5.80
11424;BMP180;5768;51.476;7.210;2024-01-15T12:56:55;98699.00;;;5.70
11424;BMP180;5768;51.476;7.210;2024-01-15T13:01:59;98703.00;;;5.70
11424;BMP180;5768;51.476;7.210;2024-01-15T13:07:01;98710.00;;;5.70
11424;BMP180;5768;51.476;7.210;2024-01-15T13:12:04;98690.00;;;5.70
11424;BMP180;5768;51.476;7.210;2024-01-15T13:17:08;98697.00;;;5.80
11424;BMP180;5768;51.476;7.210;2024-01-15T13:22:15;98695.00;;;5.90
11424;BMP180;5768;51.476;7.210;2024-01-15T13:27:17;98707.00;;;6.10
11424;BMP180;5768;51.476;7.210;2024-01-15T13:32:25;98715.00;;;6.30
11424;BMP180;5768;51.476;7.210;2024-01-15T13:37:27;98732.00;;;6.50
11424;BMP180;5768;51.476;7.210;2024-01-15T13:42:30;98733.00;;;6.50
11424;BMP180;5768;51.476;7.210;2024-01-15T13:47:33;98725.00;;;6.60
11424;BMP180;5768;51.476;7.210;2024-01-15T13:52:43;98736.00;;;6.80
11424;BMP180;5768;51.476;7.210;2024-01-15T13:57:46;98751.00;;;6.80
11424;BMP180;5768;51.476;7.210;2024-01-15T14:02:49;98750.00;;;6.80
11424;BMP180;5768;51.476;7.210;2024-01-15T14:07:52;98758.00;;;6.60
11424;BMP180;5768;51.476;7.210;2024-01-15T14:12:54;98758.00;;;6.30
11424;BMP180;5768;51.476;7.210;2024-01-15T14:17:57;98751.00;;;6.20
11424;BMP180;5768;51.476;7.210;2024-01-15T14:23:00;98756.00;;;6.10
11424;BMP180;5768;51.476;7.210;2024-01-15T14:28:02;98760.00;;;6.00
11424;BMP180;5768;51.476;7.210;2024-01-15T14:33:06;98766.00;;;5.70
11424;BMP180;5768;51.476;7.210;2024-01-15T14:38:09;98791.00;;;5.80
11424;BMP180;5768;51.476;7.210;2024-01-15T14:43:11;98808.00;;;5.70
11424;BMP180;5768;51.476;7.210;2024-01-15T14:48:15;98809.00;;;5.60
11424;BMP180;5768;51.476;7.210;2024-01-15T14:53:17;98813.00;;;5.50
11424;BMP180;5768;51.476;7.210;2024-01-15T14:58:19;98819.00;;;5.50
11424;BMP180;5768;51.476;7.210;2024-01-15T15:03:23;98826.00;;;5.50
11424;BMP180;5768;51.476;7.210;2024-01-15T15:08:25;98847.00;;;5.40
11424;BMP180;5768;51.476;7.210;2024-01-15T15:13:27;98851.00;;;5.40
11424;BMP180;5768;51.476;7.210;2024-01-15T15:18:31;98858.00;;;5.40
11424;BMP180;5768;51.476;7.210;2024-01-15T15:23:33;98870.00;;;5.40
11424;BMP180;5768;51.476;7.210;2024-01-15T15:28:39;98871.00;;;5.40
11424;BMP180;5768;51.476;7.210;2024-01-15T15:33:42;98884.00;;;5.20
11424;BMP180;5768;51.476;7.210;2024-01-15T15:38:45;98886.00;;;5.30
11424;BMP180;5768;51.476;7.210;2024-01-15T15:43:49;98875.00;;;5.30
11424;BMP180;5768;51.476;7.210;2024-01-15T15:48:52;98897.00;;;5.30
11424;BMP180;5768;51.476;7.210;2024-01-15T15:53:55;98912.00;;;5.30
11424;BMP180;5768;51.476;7.210;2024-01-15T15:58:57;98905.00;;;5.40
11424;BMP180;5768;51.476;7.210;2024-01-15T16:04:00;98924.00;;;5.30
11424;BMP180;5768;51.476;7.210;2024-01-15T16:09:04;98919.00;;;5.10
11424;BMP180;5768;51.476;7.210;2024-01-15T16:14:07;98924.00;;;4.90
11424;BMP180;5768;51.476;7.210;2024-01-15T16:19:12;98939.00;;;4.60
11424;BMP180;5768;51.476;7.210;2024-01-15T16:24:17;98937.00;;;4.50
11424;BMP180;5768;51.476;7.210;2024-01-15T16:29:20;98958.00;;;4.60
11424;BMP180;5768;51.476;7.210;2024-01-15T16:34:25;98940.00;;;4.80
11424;BMP180;5768;51.476;7.210;2024-01-15T16:39:27;98963.00;;;4.90
11424;BMP180;5768;51.476;7.210;2024-01-15T16:44:29;98963.00;;;4.90
11424;BMP180;5768;51.476;7.210;2024-01-15T16:49:35;98965.00;;;4.80
11424;BMP180;5768;51.476;7.210;2024-01-15T16:54:38;98983.00;;;4.60
11424;BMP180;5768;51.476;7.210;2024-01-15T16:59:40;98974.00;;;4.60
11424;BMP180;5768;51.476;7.210;2024-01-15T17:04:44;98977.00;;;4.50
11424;BMP180;5768;51.476;7.210;2024-01-15T17:09:46;98986.00;;;4.50
11424;BMP180;5768;51.476;7.210;2024-01-15T17:14:49;98985.00;;;4.50
11424;BMP180;5768;51.476;7.210;2024-01-15T17:19:53;98988.00;;;4.70
11424;BMP180;5768;51.476;7.210;2024-01-15T17:24:56;99007.00;;;4.70
11424;BMP180;5768;51.476;7.210;2024-01-15T17:29:58;98996.00;;;4.70
11424;BMP180;5768;51.476;7.210;2024-01-15T17:35:01;98997.00;;;4.70
11424;BMP180;5768;51.476;7.210;2024-01-15T17:40:06;99005.00;;;4.70
11424;BMP180;5768;51.476;7.210;2024-01-15T17:45:09;99019.00;;;4.70
11424;BMP180;5768;51.476;7.210;2024-01-15T17:50:13;99016.00;;;4.70
11424;BMP180;5768;51.476;7.210;2024-01-15T17:55:15;99029.00;;;4.60
11424;BMP180;5768;51.476;7.210;2024-01-15T18:00:19;99027.00;;;4.60
11424;BMP180;5768;51.476;7.210;2024-01-15T18:05:22;99023.00;;;4.60
11424;BMP180;5768;51.476;7.210;2024-01-15T18:10:25;99034.00;;;4.70
11424;BMP180;5768;51.476;7.210;2024-01-15T18:15:27;99040.00;;;4.70
11424;BMP180;5768;51.476;7.210;2024-01-15T18:20:31;99053.00;;;4.70
11424;BMP180;5768;51.476;7.210;2024-01-15T18:25:36;99054.00;;;4.80
11424;BMP180;5768;51.476;7.210;2024-01-15T18:30:39;99055.00;;;4.80
11424;BMP180;5768;51.476;7.210;2024-01-15T18:35:43;99056.00;;;4.80
11424;BMP180;5768;51.476;7.210;2024-01-15T18:40:46;99081.00;;;4.90
11424;BMP180;5768;51.476;7.210;2024-01-15T18:45:48;99060.00;;;4.90
11424;BMP180;5768;51.476;7.210;2024-01-15T18:50:52;99078.00;;;4.90
11424;BMP180;5768;51.476;7.210;2024-01-15T18:55:54;99079.00;;;4.80
11424;BMP180;5768;51.476;7.210;2024-01-15T19:00:58;99098.00;;;4.80
11424;BMP180;5768;51.476;7.210;2024-01-15T19:06:02;99105.00;;;4.70
11424;BMP180;5768;51.476;7.210;2024-01-15T19:11:04;99101.00;;;4.50
11424;BMP180;5768;51.476;7.210;2024-01-15T19:16:07;99116.00;;;4.30
11424;BMP180;5768;51.476;7.210;2024-01-15T19:21:13;99107.00;;;4.40
11424;BMP180;5768;51.476;7.210;2024-01-15T19:26:19;99125.00;;;4.40
11424;BMP180;5768;51.476;7.210;2024-01-15T19:31:21;99135.00;;;4.40
11424;BMP180;5768;51.476;7.210;2024-01-15T19:36:25;99137.00;;;4.50
11424;BMP180;5768;51.476;7.210;2024-01-15T19:41:28;99153.00;;;4.60
11424;BMP180;5768;51.476;7.210;2024-01-15T19:46:30;99145.00;;;4.70
11424;BMP180;5768;51.476;7.210;2024-01-15T19:51:36;99195.00;;;4.80
11424;BMP180;5768;51.476;7.210;2024-01-15T19:56:49;99180.00;;;4.80
11424;BMP180;5768;51.476;7.210;2024-01-15T20:01:55;99174.00;;;4.90
11424;BMP180;5768;51.476;7.210;2024-01-15T20:06:58;99186.00;;;4.90
11424;BMP180;5768;51.476;7.210;2024-01-15T20:12:03;99189.00;;;4.80
11424;BMP180;5768;51.476;7.210;2024-01-15T20:17:06;99206.00;;;4.90
11424;BMP180;5768;51.476;7.210;2024-01-15T20:22:10;99194.00;;;4.80
11424;BMP180;5768;51.476;7.210;2024-01-15T20:27:13;99211.00;;;4.80
11424;BMP180;5768;51.476;7.210;2024-01-15T20:32:17;99207.00;;;4.80
11424;BMP180;5768;51.476;7.210;2024-01-15T20:37:22;99214.00;;;4.90
11424;BMP180;5768;51.476;7.210;2024-01-15T20:42:25;99216.00;;;4.90
11424;BMP180;5768;51.476;7.210;2024-01-15T20:47:27;99210.00;;;4.70
11424;BMP180;5768;51.476;7.210;2024-01-15T20:52:33;99232.00;;;4.40
11424;BMP180;5768;51.476;7.210;2024-01-15T20:57:38;99222.00;;;4.30
11424;BMP180;5768;51.476;7.210;2024-01-15T21:02:40;99227.00;;;4.30
11424;BMP180;5768;51.476;7.210;2024-01-15T21:07:44;99249.00;;;4.30
11424;BMP180;5768;51.476;7.210;2024-01-15T21:12:47;99255.00;;;4.50
11424;BMP180;5768;51.476;7.210;2024-01-15T21:17:49;99254.00;;;4.60
11424;BMP180;5768;51.476;7.210;2024-01-15T21:22:53;99255.00;;;4.60
11424;BMP180;5768;51.476;7.210;2024-01-15T21:27:56;99265.00;;;4.70
11424;BMP180;5768;51.476;7.210;2024-01-15T21:32:58;99269.00;;;4.60
11424;BMP180;5768;51.476;7.210;2024-01-15T21:38:02;99266.00;;;4.50
11424;BMP180;5768;51.476;7.210;2024-01-15T21:43:04;99268.00;;;4.50
11424;BMP180;5768;51.476;7.210;2024-01-15T21:48:07;99277.00;;;4.60
11424;BMP180;5768;51.476;7.210;2024-01-15T21:53:10;99282.00;;;4.60
11424;BMP180;5768;51.476;7.210;2024-01-15T21:58:17;99287.00;;;4.70
11424;BMP180;5768;51.476;7.210;2024-01-15T22:03:20;99293.00;;;4.80
11424;BMP180;5768;51.476;7.210;2024-01-15T22:08:25;99289.00;;;4.70
11424;BMP180;5768;51.476;7.210;2024-01-15T22:13:28;99285.00;;;4.70
11424;BMP180;5768;51.476;7.210;2024-01-15T22:18:30;99315.00;;;4.70
11424;BMP180;5768;51.476;7.210;2024-01-15T22:23:33;99314.00;;;4.70
11424;BMP180;5768;51.476;7.210;2024-01-15T22:28:36;99319.00;;;4.70
11424;BMP180;5768;51.476;7.210;2024-01-15T22:33:39;99330.00;;;4.70
11424;BMP180;5768;51.476;7.210;2024-01-15T22:38:43;99315.00;;;4.70
11424;BMP180;5768;51.476;7.210;2024-01-15T22:43:45;99328.00;;;4.70
11424;BMP180;5768;51.476;7.210;2024-01-15T22:48:48;99329.00;;;4.70
11424;BMP180;5768;51.476;7.210;2024-01-15T22:53:51;99340.00;;;4.70
11424;BMP180;5768;51.476;7.210;2024-01-15T22:58:53;99348.00;;;4.70
11424;BMP180;5768;51.476;7.210;2024-01-15T23:03:56;99361.00;;;4.60
11424;BMP180;5768;51.476;7.210;2024-01-15T23:09:00;99352.00;;;4.70
11424;BMP180;5768;51.476;7.210;2024-01-15T23:14:02;99354.00;;;4.80
11424;BMP180;5768;51.476;7.210;2024-01-15T23:19:04;99373.00;;;4.80
11424;BMP180;5768;51.476;7.210;2024-01-15T23:24:08;99366.00;;;4.80
11424;BMP180;5768;51.476;7.210;2024-01-15T23:29:11;99374.00;;;4.80
11424;BMP180;5768;51.476;7.210;2024-01-15T23:34:13;99380.00;;;4.80
11424;BMP180;5768;51.476;7.210;2024-01-15T23:39:17;99377.00;;;4.80
11424;BMP180;5768;51.476;7.210;2024-01-15T23:44:19;99398.00;;;4.80
11424;BMP180;5768;51.476;7.210;2024-01-15T23:49:22;99392.00;;;4.80
11424;BMP180;5768;51.476;7.210;2024-01-15T23:54:26;99397.00;;;4.90
11424;BMP180;5768;51.476;7.210;2024-01-15T23:59:28;99392.00;;;4.80
